Latest Weather Observations for Parafield

IDS60901

Issued at 5:01 am CDT Monday 5 December 2022 (issued every 10 minutes, with the page automatically refreshed every 10 minutes)

About weather observations | Map of Adelaide area stations | Latest observations for Adelaide area | Other Formats
Station Details ID: 023013 Name: PARAFIELD AIRPORT Lat: -34.80 Lon: 138.63 Height: 9.5 m
Data from the previous 72 hours. | See also: Recent months at Parafield
Date/Time
CDT
Temp
°C
App
Temp
°C
Dew
Point
°C
Rel
Hum
%
Delta-T
°C
Wind Press
QNH
hPa
Press
MSL
hPa
Rain since
9am
mm
Dir  Spd
km/h
Gust
km/h
Spd
kts
Gust
kts
05/05:00am 16.2 13.2 10.7 70 2.9 SSW 17 22 9 12 1013.9 1013.9 0.0
05/04:30am 16.1 13.5 10.8 71 2.8 SSW 15 20 8 11 1013.7 1013.7 0.0
05/04:00am 16.3 13.3 10.6 69 3.0 S 17 26 9 14 1013.3 1013.3 0.0
05/03:30am 15.9 13.0 10.9 72 2.7 SSW 17 22 9 12 1013.5 1013.5 0.0
05/03:00am 16.4 12.6 11.1 71 2.8 S 22 30 12 16 1013.5 1013.5 0.0
05/02:30am 16.7 13.3 11.2 70 3.0 SSW 20 30 11 16 1013.5 1013.5 0.0
05/02:00am 16.6 13.5 11.5 72 2.8 SSW 19 26 10 14 1013.6 1013.6 0.0
05/01:30am 16.4 13.3 11.6 73 2.6 S 19 24 10 13 1012.8 1012.8 0.0
05/01:00am 16.8 14.1 11.7 72 2.8 SSW 17 24 9 13 1014.1 1014.1 0.0
05/12:30am 17.2 13.2 11.7 70 3.0 SW 24 32 13 17 1014.7 1014.7 0.0
05/12:00am 17.1 13.2 12.0 72 2.8 SW 24 39 13 21 1013.9 1013.9 0.0
 
Date/Time
CDT
Temp
°C
App
Temp
°C
Dew
Point
°C
Rel
Hum
%
Delta-T
°C
Wind Press
QNH
hPa
Press
MSL
hPa
Rain since
9am
mm
Dir  Spd
km/h
Gust
km/h
Spd
kts
Gust
kts
04/11:30pm 17.3 13.7 12.0 71 2.9 SW 22 28 12 15 1014.2 1014.2 0.0
04/11:00pm 17.4 14.8 11.9 70 3.0 SSW 17 26 9 14 1013.8 1013.8 0.0
04/10:30pm 17.9 15.4 12.4 70 3.0 SSW 17 28 9 15 1014.1 1014.1 0.0
04/10:00pm 17.8 14.9 12.9 73 2.7 SSW 20 28 11 15 1013.4 1013.4 0.0
04/09:38pm 17.6 11.8 12.7 73 2.7 SW 35 54 19 29 1013.5 1013.5 0.0
04/09:30pm 17.9 11.7 12.8 72 2.8 SW 37 52 20 28 1013.5 1013.5 0.0
04/09:25pm 18.0 12.2 12.7 71 3.0 SW 35 52 19 28 1013.4 1013.4 0.0
04/09:00pm 18.4 14.9 13.5 73 2.8 SW 24 32 13 17 1012.2 1012.2 0.0
04/08:30pm 18.8 14.9 13.4 71 3.1 SW 26 43 14 23 1011.7 1011.7 0.0
04/08:00pm 19.4 15.9 14.6 74 2.8 SW 26 41 14 22 1011.3 1011.3 0.0
04/07:30pm 20.3 15.8 14.9 71 3.2 SW 32 39 17 21 1010.6 1010.6 0.0
04/07:00pm 22.2 17.9 15.5 66 4.0 WSW 32 43 17 23 1009.8 1009.8 0.0
04/06:30pm 25.8 22.7 14.6 50 6.7 SW 24 30 13 16 1009.2 1009.2 0.0
04/06:00pm 29.3 26.1 9.9 30 10.9 WSW 17 28 9 15 1008.6 1008.6 0.0
04/05:30pm 29.7 25.8 8.7 27 11.6 SW 19 24 10 13 1008.6 1008.6 0.0
04/05:00pm 29.7 23.7 7.0 24 12.2 SSW 28 41 15 22 1008.7 1008.7 0.0
04/04:30pm 29.8 25.9 8.8 27 11.7 SW 19 26 10 14 1008.3 1008.3 0.0
04/04:00pm 32.5 27.7 7.4 21 13.8 SSW 22 32 12 17 1008.4 1008.4 0.0
04/03:30pm 34.6 28.9 5.1 16 15.8 SW 24 35 13 19 1008.6 1008.6 0.0
04/03:00pm 35.5 30.4 5.8 16 16.2 WSW 22 32 12 17 1008.6 1008.6 0.0
04/02:30pm 35.4 30.5 3.9 14 16.6 WSW 19 26 10 14 1008.8 1008.8 0.0
04/02:00pm 35.0 30.4 3.5 14 16.5 W 17 26 9 14 1009.2 1009.2 0.0
04/01:30pm 36.4 30.8 3.6 13 17.3 WSW 22 30 12 16 1009.4 1009.4 0.0
04/01:00pm 36.4 30.6 4.6 14 17.0 NW 24 32 13 17 1009.7 1009.7 0.0
04/12:30pm 36.5 30.8 4.7 14 17.1 NW 24 33 13 18 1009.9 1009.9 0.0
04/12:00pm 35.6 29.0 4.0 14 16.7 WNW 28 35 15 19 1010.1 1010.1 0.0
04/11:30am 34.6 30.2 7.6 19 15.0 NW 20 26 11 14 1010.4 1010.4 0.0
04/11:00am 34.0 29.4 6.3 18 15.0 WNW 20 30 11 16 1010.6 1010.6 0.0
04/10:30am 34.0 30.1 7.1 19 14.8 NNW 17 24 9 13 1010.7 1010.7 0.0
04/10:00am 31.9 27.7 7.5 22 13.4 N 19 26 10 14 1010.8 1010.8 0.0
04/09:30am 30.8 27.3 7.3 23 12.8 N 15 20 8 11 1011.0 1011.0 0.0
04/09:00am 29.2 25.7 7.2 25 11.8 N 15 19 8 10 1011.2 1011.2 0.0
04/08:30am 25.2 24.0 9.5 37 8.6 NE 6 7 3 4 1011.1 1011.1 0.0
04/08:07am 23.7 23.1 8.9 39 7.9 SSW 2 7 1 4 1011.3 1011.3 0.0
04/08:00am 22.4 21.2 9.6 44 6.9 W 6 11 3 6 1011.3 1011.3 0.0
04/07:47am 21.9 20.3 10.1 47 6.4 W 9 11 5 6 1011.0 1011.0 0.0
04/07:30am 20.5 19.3 10.3 52 5.5 WSW 7 9 4 5 1010.6 1010.6 0.0
04/07:00am 18.2 17.3 10.8 62 4.0 ENE 6 7 3 4 1010.0 1010.0 0.0
04/06:30am 15.7 15.0 8.4 62 3.7 SSE 2 7 1 4 1010.2 1010.2 0.0
04/06:00am 13.8 11.8 8.8 72 2.5 W 9 11 5 6 1010.1 1010.1 0.0
04/05:30am 14.8 13.2 7.8 63 3.5 SW 6 7 3 4 1009.6 1009.6 0.0
04/05:00am 14.2 12.0 7.9 66 3.1 WSW 9 9 5 5 1009.5 1009.5 0.0
04/04:30am 14.8 13.1 7.6 62 3.6 NW 6 7 3 4 1009.3 1009.3 0.0
04/04:00am 16.2 15.7 7.7 57 4.3 CALM 0 0 0 0 1009.2 1009.2 0.0
04/03:50am 15.7 15.1 7.2 57 4.2 CALM 0 0 0 0 1009.4 1009.4 0.0
04/03:30am 16.2 15.6 7.2 55 4.5 CALM 0 0 0 0 1009.7 1009.7 0.0
04/03:00am 16.3 14.6 8.3 59 4.1 NNW 7 7 4 4 1010.0 1010.0 0.0
04/02:30am 17.0 15.4 8.2 56 4.5 NW 6 6 3 3 1010.1 1010.1 0.0
04/02:00am 18.2 17.5 8.7 54 4.9 WNW 2 7 1 4 1010.3 1010.3 0.0
04/01:30am 17.9 16.8 6.7 48 5.6 S 2 7 1 4 1010.6 1010.6 0.0
04/01:00am 18.4 17.8 7.2 48 5.6 CALM 0 6 0 3 1010.9 1010.9 0.0
04/12:30am 19.1 17.1 7.2 46 6.0 NW 7 9 4 5 1011.3 1011.3 0.0
04/12:00am 19.7 17.8 6.8 43 6.5 NW 6 7 3 4 1011.5 1011.5 0.0
 
Date/Time
CDT
Temp
°C
App
Temp
°C
Dew
Point
°C
Rel
Hum
%
Delta-T
°C
Wind Press
QNH
hPa
Press
MSL
hPa
Rain since
9am
mm
Dir  Spd
km/h
Gust
km/h
Spd
kts
Gust
kts
03/11:30pm 22.7 20.9 5.6 33 8.6 N 4 9 2 5 1011.7 1011.7 0.0
03/11:00pm 22.9 20.3 6.2 34 8.5 ENE 9 15 5 8 1011.6 1011.6 0.0
03/10:30pm 22.5 20.0 6.7 36 8.1 SE 9 13 5 7 1011.7 1011.7 0.0
03/10:00pm 23.4 19.9 7.1 35 8.5 SE 15 19 8 10 1011.6 1011.6 0.0
03/09:30pm 23.9 21.3 7.9 36 8.5 SSE 11 17 6 9 1011.3 1011.3 0.0
03/09:00pm 25.5 23.2 7.6 32 9.5 ESE 9 15 5 8 1011.2 1011.2 0.0
03/08:30pm 24.3 21.3 4.1 27 10.0 S 9 13 5 7 1011.1 1011.1 0.0
03/08:00pm 28.1 23.9 1.6 18 12.8 SSW 13 19 7 10 1010.9 1010.9 0.0
03/07:30pm 30.5 26.2 1.0 15 14.4 SSW 13 17 7 9 1010.7 1010.7 0.0
03/07:00pm 32.0 27.4 -0.9 12 15.7 S 13 15 7 8 1010.5 1010.5 0.0
03/06:30pm 32.8 27.8 -1.5 11 16.3 SSW 15 19 8 10 1010.5 1010.5 0.0
03/06:00pm 33.0 27.8 -2.6 10 16.6 S 15 20 8 11 1010.3 1010.3 0.0
03/05:30pm 33.8 28.1 -3.5 9 17.3 S 17 28 9 15 1010.5 1010.5 0.0
03/05:00pm 34.0 28.5 -1.9 10 17.1 S 17 28 9 15 1010.7 1010.7 0.0
03/04:30pm 33.7 27.3 -5.1 8 17.5 S 20 26 11 14 1010.8 1010.8 0.0
03/04:00pm 34.1 28.3 -4.8 8 17.6 SSW 17 26 9 14 1011.0 1011.0 0.0
03/03:30pm 33.3 28.7 -1.1 11 16.5 SSW 13 22 7 12 1011.1 1011.1 0.0
03/03:00pm 33.2 27.8 1.1 13 16.0 SW 19 28 10 15 1011.5 1011.5 0.0
03/02:30pm 32.8 27.9 1.8 14 15.6 W 17 24 9 13 1011.8 1011.8 0.0
03/02:00pm 32.5 28.5 0.6 13 15.7 WSW 11 19 6 10 1012.0 1012.0 0.0
03/01:30pm 32.7 27.6 0.7 13 15.8 WSW 17 24 9 13 1012.2 1012.2 0.0
03/01:00pm 32.5 28.1 2.5 15 15.2 W 15 20 8 11 1012.5 1012.5 0.0
03/12:30pm 32.0 27.1 2.1 15 15.0 W 17 24 9 13 1012.7 1012.7 0.0
03/12:00pm 32.1 27.9 4.0 17 14.6 WNW 15 20 8 11 1013.0 1013.0 0.0
03/11:30am 31.4 28.2 5.0 19 13.8 N 11 19 6 10 1013.3 1013.3 0.0
03/11:00am 30.6 27.3 4.4 19 13.5 NW 11 17 6 9 1013.4 1013.4 0.0
03/10:55am 30.9 28.0 6.7 22 13.0 NW 11 15 6 8 1013.4 1013.4 0.0
03/10:42am 30.0 26.9 7.2 24 12.3 NNW 13 24 7 13 1013.3 1013.3 0.0
03/10:30am 29.9 27.0 8.3 26 11.9 N 13 19 7 10 1013.4 1013.4 0.0
03/10:00am 29.3 26.4 6.7 24 12.1 N 11 19 6 10 1013.5 1013.5 0.0
03/09:30am 27.0 25.6 8.9 32 9.9 NNW 6 9 3 5 1013.6 1013.6 0.0
03/09:00am 24.7 23.8 9.4 38 8.3 SSW 4 7 2 4 1013.7 1013.7 0.0
03/08:30am 23.3 22.1 10.4 44 7.1 W 7 9 4 5 1013.7 1013.7 0.0
03/08:00am 21.6 21.0 11.6 53 5.6 W 6 7 3 4 1013.4 1013.4 0.0
03/07:30am 20.1 19.8 11.6 58 4.7 W 4 7 2 4 1013.1 1013.1 0.0
03/07:00am 18.6 16.4 10.9 61 4.2 W 13 15 7 8 1012.9 1012.9 0.0
03/06:30am 17.5 16.8 8.4 55 4.7 SW 2 11 1 6 1012.6 1012.6 0.0
03/06:00am 17.5 16.5 7.3 51 5.1 E 2 7 1 4 1012.1 1012.1 0.0
03/05:30am 17.4 16.1 7.5 52 5.0 E 4 9 2 5 1012.1 1012.1 0.0
03/05:00am 17.7 16.5 8.0 53 4.9 NNW 4 9 2 5 1011.9 1011.9 0.0
03/04:30am 18.6 18.1 8.0 50 5.4 CALM 0 6 0 3 1011.9 1011.9 0.0
03/04:00am 17.9 17.4 7.9 52 5.1 CALM 0 0 0 0 1011.9 1011.9 0.0
03/03:30am 19.2 17.3 7.6 47 5.9 NE 7 9 4 5 1011.9 1011.9 0.0
03/03:00am 20.0 17.0 7.7 45 6.3 ENE 13 15 7 8 1012.0 1012.0 0.0
03/02:30am 20.6 16.8 7.6 43 6.7 E 17 22 9 12 1012.2 1012.2 0.0
03/02:00am 21.2 16.3 6.7 39 7.4 E 22 32 12 17 1012.4 1012.4 0.0
03/01:30am 21.3 15.4 4.0 32 8.4 ESE 24 32 13 17 1012.6 1012.6 0.0
03/01:00am 21.2 15.6 3.4 31 8.5 ESE 22 30 12 16 1012.8 1012.8 0.0
03/12:30am 21.2 16.8 4.7 34 8.1 E 17 24 9 13 1013.1 1013.1 0.0
03/12:00am 20.8 17.0 5.6 37 7.5 E 15 20 8 11 1013.4 1013.4 0.0
 
Date/Time
CDT
Temp
°C
App
Temp
°C
Dew
Point
°C
Rel
Hum
%
Delta-T
°C
Wind Press
QNH
hPa
Press
MSL
hPa
Rain since
9am
mm
Dir  Spd
km/h
Gust
km/h
Spd
kts
Gust
kts
02/11:30pm 21.1 16.9 5.5 36 7.7 ESE 17 20 9 11 1013.5 1013.5 0.0
02/11:00pm 21.4 16.5 5.3 35 8.0 ESE 20 26 11 14 1013.5 1013.5 0.0
02/10:30pm 22.0 16.7 5.0 33 8.4 ESE 22 30 12 16 1013.6 1013.6 0.0
02/10:00pm 21.9 17.1 5.8 35 8.1 ESE 20 32 11 17 1013.6 1013.6 0.0
02/09:30pm 22.1 18.3 7.5 39 7.6 ESE 17 20 9 11 1013.2 1013.2 0.0
02/09:00pm 22.8 19.1 8.1 39 7.7 ESE 17 20 9 11 1013.0 1013.0 0.0
02/08:30pm 23.8 20.8 9.4 40 7.8 SE 15 20 8 11 1012.9 1012.9 0.0
02/08:00pm 23.9 21.0 9.5 40 7.8 SSW 15 20 8 11 1012.7 1012.7 0.0
02/07:30pm 25.9 22.9 9.3 35 9.1 SSW 15 20 8 11 1012.5 1012.5 0.0
02/07:00pm 26.6 22.7 8.6 32 9.8 SSW 19 26 10 14 1012.4 1012.4 0.0
02/06:30pm 27.2 23.2 9.1 32 9.9 SSW 20 30 11 16 1012.1 1012.1 0.0
02/06:00pm 28.0 23.9 10.2 33 10.0 SSW 22 32 12 17 1011.9 1011.9 0.0
02/05:30pm 28.0 23.5 10.2 33 10.0 SW 24 28 13 15 1011.9 1011.9 0.0
02/05:00pm 28.7 24.7 10.4 32 10.3 SW 22 32 12 17 1011.9 1011.9 0.0
02/04:30pm 28.7 24.5 9.9 31 10.5 SW 22 30 12 16 1011.9 1011.9 0.0
02/04:00pm 28.6 24.7 9.3 30 10.7 SW 20 28 11 15 1012.0 1012.0 0.0
02/03:30pm 29.4 26.1 11.0 32 10.5 SW 19 24 10 13 1012.3 1012.3 0.0
02/03:00pm 29.2 25.9 10.8 32 10.5 WSW 19 28 10 15 1012.6 1012.6 0.0
02/02:30pm 29.7 27.8 11.7 33 10.4 SW 13 30 7 16 1012.8 1012.8 0.0
02/02:00pm 28.4 25.6 11.5 35 9.7 SW 17 24 9 13 1013.2 1013.2 0.0
02/01:30pm 27.6 25.4 12.0 38 9.0 WSW 15 28 8 15 1013.6 1013.6 0.0
02/01:00pm 28.3 27.5 11.8 36 9.5 SW 7 17 4 9 1013.8 1013.8 0.0
02/12:30pm 27.3 25.3 10.1 34 9.6 SSW 11 17 6 9 1014.0 1014.0 0.0
02/12:00pm 27.3 26.0 10.1 34 9.6 S 7 11 4 6 1014.3 1014.3 0.0
02/11:30am 26.0 24.8 10.2 37 8.8 SW 7 13 4 7 1014.5 1014.5 0.0
02/11:00am 26.2 24.9 11.2 39 8.5 S 9 17 5 9 1014.9 1014.9 0.0
02/10:30am 25.4 24.6 11.6 42 7.8 ESE 7 15 4 8 1015.1 1015.1 0.0
02/10:00am 24.9 23.9 12.2 45 7.3 NNE 9 19 5 10 1015.0 1015.0 0.0
02/09:30am 22.4 21.6 11.2 49 6.2 NW 6 9 3 5 1015.3 1015.3 0.0
02/09:00am 22.2 21.6 11.6 51 5.9 SSW 6 9 3 5 1015.3 1015.3 0.0
02/08:30am 20.4 20.1 11.3 56 5.0 NW 4 7 2 4 1015.2 1015.2 0.0
02/08:00am 19.2 18.5 11.3 60 4.3 W 6 7 3 4 1015.1 1015.1 0.0
02/07:30am 18.0 17.1 11.3 65 3.6 SW 7 9 4 5 1014.8 1014.8 0.0
02/07:00am 16.6 16.3 12.6 77 2.2 WNW 6 7 3 4 1014.3 1014.3 0.0
02/06:30am 15.2 15.2 11.0 76 2.2 E 2 7 1 4 1014.1 1014.1 0.0
02/06:00am 15.2 15.5 10.8 75 2.3 CALM 0 6 0 3 1014.0 1014.0 0.0
02/05:30am 15.7 14.9 11.1 74 2.5 WNW 6 13 3 7 1013.7 1013.7 0.0

Latest Capital City Observations: Canberra | Sydney | Melbourne | Brisbane | Adelaide | Perth | Hobart | Darwin

Other formats

Comma delimited format used in spreadsheet applications
http://www.bom.gov.au/fwo/IDS60901/IDS60901.95677.axf

JavaScript Object Notation format (JSON) in row-major order
http://www.bom.gov.au/fwo/IDS60901/IDS60901.95677.json

Data quality

Most of these data are generated automatically and are frequently updated. Quality checks on data are not normally performed. It is possible for incorrect values to appear. Refer to information at About Latest Weather Observations and please check the disclaimer before using these data.